Radisson, Wisconsin
Current Conditions -  °F | °C
As of 5:05 AM on Friday 24 Oct 2014 (Local Time) from KHYR Reporting Station
Haze Haze  
Wind Chill: 47°   Ceiling: 500
Heat Index: 49°   Visibility: 6mi
Dew Point: 47°   Wind: 5mph
Humidity: 93%   Direction: 170°S
Pressure: 29.96"   Gusts: NA
Location:  45.77°N, 91.22°W
Report Text: KHYR 241005Z AUTO 17004KT 6SM BR OVC005 09/08 A2996 RMK AO2 T00940083
Loading
Personal Weather Stations






























Interactive Weather Map
Tropical Storm Tracking
New forecast layout! Learn more

10-Day Weather Forecast

Advertisements
Track Severe Weather on mobile